Terminal Aerodrome Forecast
Issued by NWS

Home | Current Version | Previous Version | Text Only | Print | Product List | Glossary On
Versions: 1 2 3 4 5 6 7 8 9 10 11 12 13 14 15 16 17 18 19 20
000
FTUS41 KBOX 280528
TAFBAF
TAF
KBAF 280528Z 2806/0106 VRB03KT P6SM SCT070
     FM281500 00000KT P6SM SCT070
     FM282300 15004KT P6SM VCSH BKN090
     FM010300 15005KT 1SM -RA BR OVC008=

USA.gov is the U.S. government's official web portal to all federal, state and local government web resources and services.